Главная страница
METAR-TAF:

METAR-TAF

Аэропорты :

Уфа, Россия

широта: 54-43-48N, долгота: 055-55-48E, высота над уровнем моря: м

Текущие метеонаблюдения

Эта сводка был подготовлена 26 минут назад, в 10:00 UTC
Ветер 8 Узел от юго-западный
Температура 0°C
Влажность 59%
Давление 1024 hPa
Видимость 10 км и более
Сплошная облачность на высоте 2800 фута

METAR: UWUU 231000Z 22004MPS 9999 OVC028 M00/M07 Q1024 R14R/0///60 NOSIG RMK QFE758/1010

Время: 15:26 (10:26 UTC)

Прогноз

Эта сводка был подготовлена 2 часа и 30 минут назад, в 07:56 UTC
Прогноз действительный с 23-го 09 UTC до 24-го 09 UTC
Ветер 8 Узел от юго-западный с порывами до 19 Узел
Видимость 10 км и более
Рассеянная облачность на высоте 3000 фута
временами
С 23-го 09 UTC до 23-го 18 UTC
Ветер 6 Узел от южный с порывами до 16 Узел

TAF: UWUU 230756Z 2309/2409 22004G10MPS 9999 BKN030 TEMPO 2309/2318 18003G08MPS

Метеонаблюдения и прогнозы для более 4000 аэропортов (сводки METAR и TAF).

Имеющиеся станции представлены на карте желтыми и красными точками.

Чтобы увидеть название станции, наведите на нее мышь.

Затем щелкните, чтобы увидеть метеонаблюдения и метеопрогнозы.

Управление картой: чтобы увеличить масштаб, щелкните зеленые кнопки с черным крестиком; чтобы уменьшить масштаб, щелкните зеленую кнопку с тире; для просмотра соседних карт щелкайте зеленые стрелки.


METAR-TAF: